createdAt,value
2023-05-24T00:00:34.154Z,101639.03
2023-05-24T00:03:02.529Z,101639.84
2023-05-24T00:05:32.496Z,101634.48
2023-05-24T00:08:00.901Z,101627.75
2023-05-24T00:10:29.290Z,101623.92
2023-05-24T00:12:57.564Z,101619.73
2023-05-24T00:15:25.720Z,101617.12
2023-05-24T00:17:53.989Z,101611.73
2023-05-24T00:20:22.482Z,101613.69
2023-05-24T00:22:50.674Z,101608.26
2023-05-24T00:25:21.420Z,101606.63
2023-05-24T00:27:49.534Z,101602.73
2023-05-24T00:30:17.639Z,101603.59
2023-05-24T00:32:45.865Z,101608.49
2023-05-24T00:35:14.026Z,101612.25
2023-05-24T00:37:47.125Z,101607.34
2023-05-24T00:40:18.496Z,101606.01
2023-05-24T00:42:46.604Z,101608.39
2023-05-24T00:45:14.767Z,101597.60
2023-05-24T00:47:42.884Z,101600.97
2023-05-24T00:50:13.344Z,101603.84
2023-05-24T00:52:44.529Z,101594.62
2023-05-24T00:55:13.378Z,101599.89
2023-05-24T00:57:41.467Z,101595.84
2023-05-24T01:00:10.262Z,101597.41
2023-05-24T01:02:39.324Z,101592.83
2023-05-24T01:05:08.338Z,101586.23
2023-05-24T01:07:43.320Z,101593.68
2023-05-24T01:10:37.038Z,101583.84
2023-05-24T01:13:29.002Z,101582.17
2023-05-24T01:16:06.756Z,101584.82
2023-05-24T01:18:42.413Z,101586.38
2023-05-24T01:21:13.433Z,101582.23
2023-05-24T01:24:24.069Z,101585.11
2023-05-24T01:27:07.098Z,101588.80
2023-05-24T01:29:35.908Z,101582.23
2023-05-24T01:32:04.465Z,101589.66
2023-05-24T01:34:32.612Z,101594.20
2023-05-24T01:37:00.769Z,101589.76
2023-05-24T01:39:29.832Z,101595.41
2023-05-24T01:42:07.295Z,101595.02
2023-05-24T01:44:38.365Z,101592.05
2023-05-24T01:47:18.579Z,101591.59
2023-05-24T01:49:51.462Z,101592.30
2023-05-24T01:52:21.515Z,101594.46
2023-05-24T01:54:51.838Z,101588.31
2023-05-24T01:57:20.875Z,101594.46
2023-05-24T01:59:49.091Z,101588.31
2023-05-24T02:02:17.254Z,101592.05
2023-05-24T02:04:45.480Z,101589.66
2023-05-24T02:07:13.752Z,101589.98
2023-05-24T02:09:42.031Z,101591.20
2023-05-24T02:12:10.806Z,101586.29
2023-05-24T02:14:39.436Z,101590.38
2023-05-24T02:17:08.089Z,101591.95
2023-05-24T02:19:38.317Z,101589.30
2023-05-24T02:22:06.655Z,101597.60
2023-05-24T02:24:34.989Z,101590.18
2023-05-24T02:27:03.931Z,101588.97
2023-05-24T02:29:32.031Z,101582.37
2023-05-24T02:32:00.274Z,101591.00
2023-05-24T02:34:28.841Z,101584.26
2023-05-24T02:36:57.374Z,101582.73
2023-05-24T02:39:25.579Z,101572.88
2023-05-24T02:41:53.972Z,101578.77
2023-05-24T02:44:22.133Z,101576.22
2023-05-24T02:46:50.340Z,101571.31
2023-05-24T02:49:18.387Z,101575.04
2023-05-24T02:51:46.476Z,101573.73
2023-05-24T02:54:14.583Z,101576.22
2023-05-24T02:56:42.680Z,101573.73
2023-05-24T02:59:10.702Z,101582.73
2023-05-24T03:01:38.786Z,101573.63
2023-05-24T03:04:07.027Z,101574.35
2023-05-24T03:06:35.151Z,101573.15
2023-05-24T03:09:03.193Z,101568.60
2023-05-24T03:11:31.476Z,101570.17
2023-05-24T03:13:59.764Z,101576.38
2023-05-24T03:16:27.897Z,101572.95
2023-05-24T03:18:56.825Z,101568.24
2023-05-24T03:21:25.165Z,101570.66
2023-05-24T03:23:53.442Z,101569.81
2023-05-24T03:26:22.021Z,101568.63
2023-05-24T03:28:51.950Z,101571.51
2023-05-24T03:31:22.249Z,101570.92
2023-05-24T03:33:50.550Z,101571.25
2023-05-24T03:36:18.717Z,101571.25
2023-05-24T03:38:46.951Z,101572.00
2023-05-24T03:41:15.160Z,101579.29
2023-05-24T03:43:57.190Z,101583.05
2023-05-24T03:46:25.458Z,101586.65
2023-05-24T03:48:53.583Z,101584.95
2023-05-24T03:51:22.057Z,101581.61
2023-05-24T03:53:50.297Z,101586.16
2023-05-24T03:56:18.635Z,101590.60
2023-05-24T03:58:46.858Z,101591.42
2023-05-24T04:01:29.315Z,101586.52
2023-05-24T04:04:03.147Z,101589.27
2023-05-24T04:06:31.598Z,101597.54
2023-05-24T04:09:00.638Z,101603.29
2023-05-24T04:11:30.008Z,101599.95
2023-05-24T04:13:59.112Z,101606.07
2023-05-24T04:16:27.915Z,101610.13
2023-05-24T04:18:59.334Z,101601.03
2023-05-24T04:21:27.559Z,101602.70
2023-05-24T04:23:57.249Z,101601.03
2023-05-24T04:26:25.513Z,101608.45
2023-05-24T04:28:53.933Z,101605.09
2023-05-24T04:31:22.730Z,101607.38
2023-05-24T04:33:51.763Z,101610.13
2023-05-24T04:36:19.815Z,101615.65
2023-05-24T04:38:47.896Z,101610.62
2023-05-24T04:41:16.083Z,101614.90
2023-05-24T04:43:44.230Z,101617.52
2023-05-24T04:52:55.264Z,101620.06
2023-05-24T04:55:23.438Z,101617.77
2023-05-24T04:57:51.711Z,101613.59
2023-05-24T05:00:20.309Z,101624.74
2023-05-24T05:02:49.186Z,101631.54
2023-05-24T05:05:17.744Z,101635.73
2023-05-24T05:07:45.806Z,101628.20
2023-05-24T05:10:13.958Z,101631.67
2023-05-24T05:12:42.113Z,101637.27
2023-05-24T05:15:10.808Z,101633.24
2023-05-24T05:17:39.080Z,101642.40
2023-05-24T05:20:08.388Z,101644.09
2023-05-24T05:22:36.672Z,101639.19
2023-05-24T05:25:05.271Z,101637.66
2023-05-24T05:27:33.535Z,101642.20
2023-05-24T05:30:01.952Z,101640.40
2023-05-24T05:32:30.281Z,101646.48
2023-05-24T05:34:58.452Z,101649.23
2023-05-24T05:37:26.694Z,101660.90
2023-05-24T05:39:54.869Z,101659.95
2023-05-24T05:42:23.047Z,101656.09
2023-05-24T05:44:51.200Z,101653.05
2023-05-24T05:47:19.417Z,101656.32
2023-05-24T05:49:47.660Z,101649.95
2023-05-24T05:52:15.881Z,101653.87
2023-05-24T05:54:56.690Z,101658.16
2023-05-24T05:57:25.692Z,101658.61
2023-05-24T05:59:53.811Z,101661.49
2023-05-24T06:02:24.562Z,101665.41
2023-05-24T06:04:52.990Z,101667.44
2023-05-24T06:07:21.423Z,101655.96
2023-05-24T06:09:49.760Z,101657.63
2023-05-24T06:12:17.996Z,101662.18
2023-05-24T06:14:46.911Z,101659.82
2023-05-24T06:17:15.074Z,101657.63
2023-05-24T06:19:43.121Z,101662.73
2023-05-24T06:22:11.613Z,101655.90
2023-05-24T06:24:41.020Z,101652.53
2023-05-24T06:27:09.143Z,101657.08
2023-05-24T06:29:37.465Z,101648.48
2023-05-24T06:32:05.947Z,101650.37
2023-05-24T06:34:34.330Z,101654.00
2023-05-24T06:37:04.005Z,101659.63
2023-05-24T06:39:32.140Z,101663.38
2023-05-24T06:42:00.291Z,101659.30
2023-05-24T06:44:35.391Z,101665.19
2023-05-24T06:47:03.606Z,101671.49
2023-05-24T06:49:31.789Z,101671.04
2023-05-24T06:51:59.878Z,101664.07
2023-05-24T06:54:28.094Z,101675.06
2023-05-24T06:56:57.227Z,101667.27
2023-05-24T06:59:25.450Z,101677.09
2023-05-24T07:02:00.615Z,101688.07
2023-05-24T07:04:31.096Z,101688.63
2023-05-24T07:06:59.667Z,101684.09
2023-05-24T07:09:28.057Z,101690.33
2023-05-24T07:11:56.169Z,101697.75
2023-05-24T07:14:25.373Z,101703.80
2023-05-24T07:16:53.598Z,101698.30
2023-05-24T07:19:23.337Z,101697.95
2023-05-24T07:21:52.027Z,101696.77
2023-05-24T07:24:20.117Z,101703.66
2023-05-24T07:26:48.774Z,101702.00
2023-05-24T07:29:16.924Z,101701.80
2023-05-24T07:31:45.461Z,101696.28
2023-05-24T07:34:13.538Z,101703.66
2023-05-24T07:36:42.315Z,101705.50
2023-05-24T07:39:17.127Z,101703.80
2023-05-24T07:41:45.404Z,101709.23
2023-05-24T07:44:14.521Z,101705.50
2023-05-24T07:46:42.816Z,101711.94
2023-05-24T07:49:11.060Z,101713.28
2023-05-24T07:51:39.594Z,101709.23
2023-05-24T07:54:07.772Z,101708.02
2023-05-24T07:56:35.925Z,101710.57
2023-05-24T07:59:06.852Z,101703.27
2023-05-24T08:01:38.227Z,101702.42
2023-05-24T08:04:06.475Z,101707.13
2023-05-24T08:06:34.707Z,101703.44
2023-05-24T08:09:06.717Z,101708.34
2023-05-24T08:11:34.778Z,101710.01
2023-05-24T08:14:02.842Z,101716.59
2023-05-24T08:16:31.101Z,101714.55
2023-05-24T08:18:59.359Z,101724.49
2023-05-24T08:21:27.584Z,101721.62
2023-05-24T08:26:22.531Z,101718.41
2023-05-24T08:28:50.693Z,101721.48
2023-05-24T08:31:19.430Z,101722.47
2023-05-24T08:33:51.852Z,101720.93
2023-05-24T08:36:20.172Z,101720.41
2023-05-24T08:38:48.427Z,101710.50
2023-05-24T08:41:16.573Z,101718.12
2023-05-24T08:43:45.453Z,101712.86
2023-05-24T08:46:13.916Z,101713.22
2023-05-24T08:48:49.059Z,101722.30
2023-05-24T08:51:17.623Z,101732.96
2023-05-24T08:53:49.736Z,101722.66
2023-05-24T08:56:20.942Z,101731.10
2023-05-24T08:58:49.163Z,101727.08
2023-05-24T09:01:18.215Z,101733.65
2023-05-24T09:03:48.198Z,101734.50
2023-05-24T09:06:18.324Z,101734.99
2023-05-24T09:08:46.993Z,101735.13
2023-05-24T09:11:15.282Z,101731.43
2023-05-24T09:13:44.090Z,101734.50
2023-05-24T09:16:12.257Z,101734.63
2023-05-24T09:18:42.617Z,101739.21
2023-05-24T09:21:12.408Z,101739.90
2023-05-24T09:23:41.054Z,101736.33
2023-05-24T09:26:10.980Z,101736.79
2023-05-24T09:28:39.809Z,101737.45
2023-05-24T09:31:08.402Z,101732.67
2023-05-24T09:33:36.797Z,101738.23
2023-05-24T09:36:06.000Z,101731.79
2023-05-24T09:38:34.687Z,101728.23
2023-05-24T09:41:04.365Z,101741.23
2023-05-24T09:43:33.235Z,101721.26
2023-05-24T09:46:03.327Z,101740.19
2023-05-24T09:48:31.905Z,101724.43
2023-05-24T09:51:07.021Z,101730.45
2023-05-24T09:53:36.318Z,101733.00
2023-05-24T09:56:09.846Z,101746.14
2023-05-24T09:58:37.869Z,101744.11
2023-05-24T10:01:09.801Z,101745.06
2023-05-24T10:03:38.794Z,101746.80
2023-05-24T10:06:09.032Z,101748.95
2023-05-24T10:08:37.989Z,101745.26
2023-05-24T10:11:06.568Z,101745.26
2023-05-24T10:13:37.143Z,101739.70
2023-05-24T10:16:05.495Z,101742.22
2023-05-24T10:18:33.569Z,101745.06
2023-05-24T10:21:03.167Z,101741.17
2023-05-24T10:23:32.482Z,101741.66
2023-05-24T10:26:08.517Z,101744.54
2023-05-24T10:28:54.565Z,101739.77
2023-05-24T10:31:28.493Z,101745.29
2023-05-24T10:34:06.510Z,101739.70
2023-05-24T10:36:36.397Z,101735.29
2023-05-24T10:39:05.167Z,101735.97
2023-05-24T10:41:40.954Z,101744.60
2023-05-24T10:44:21.687Z,101752.84
2023-05-24T10:47:15.123Z,101748.63
2023-05-24T10:49:53.767Z,101749.84
2023-05-24T10:52:21.951Z,101749.64
2023-05-24T10:55:06.044Z,101757.20
2023-05-24T10:57:34.643Z,101760.20
2023-05-24T11:00:33.836Z,101759.02
2023-05-24T11:03:05.532Z,101753.27
2023-05-24T11:05:38.068Z,101760.20
2023-05-24T11:08:08.231Z,101763.08
2023-05-24T11:10:36.297Z,101758.53
2023-05-24T11:13:04.793Z,101758.76
2023-05-24T11:15:33.030Z,101750.66
2023-05-24T11:18:21.827Z,101751.63
2023-05-24T11:20:50.021Z,101739.54
2023-05-24T11:23:18.325Z,101747.45
2023-05-24T11:28:17.969Z,101739.60
2023-05-24T11:30:47.287Z,101736.04
2023-05-24T11:33:21.862Z,101736.89
2023-05-24T11:35:51.840Z,101734.86
2023-05-24T11:38:21.236Z,101738.20
2023-05-24T11:40:51.315Z,101727.18
2023-05-24T11:43:20.864Z,101727.66
2023-05-24T11:45:52.610Z,101723.71
2023-05-24T11:48:21.374Z,101720.02
2023-05-24T11:50:53.016Z,101725.67
2023-05-24T11:53:24.614Z,101724.73
2023-05-24T11:55:54.472Z,101725.09
2023-05-24T11:58:27.686Z,101716.23
2023-05-24T12:00:55.974Z,101719.43
2023-05-24T12:03:24.592Z,101712.01
2023-05-24T12:05:52.934Z,101699.38
2023-05-24T12:08:21.835Z,101694.94
2023-05-24T12:10:50.700Z,101702.13
2023-05-24T12:13:24.615Z,101698.80
2023-05-24T12:15:56.290Z,101699.26
2023-05-24T12:18:25.595Z,101702.72
2023-05-24T12:20:54.178Z,101701.05
2023-05-24T12:23:24.792Z,101703.57
2023-05-24T12:25:52.862Z,101705.95
2023-05-24T12:28:26.162Z,101703.66
2023-05-24T12:30:54.792Z,101701.48
2023-05-24T12:33:22.993Z,101710.21
2023-05-24T12:35:51.489Z,101711.87
2023-05-24T12:38:26.507Z,101703.83
2023-05-24T12:41:11.229Z,101703.93
2023-05-24T12:43:42.074Z,101703.66
2023-05-24T12:46:10.204Z,101700.27
2023-05-24T12:48:38.565Z,101700.27
2023-05-24T12:51:06.755Z,101689.94
2023-05-24T12:53:35.522Z,101701.18
2023-05-24T12:56:03.609Z,101687.91
2023-05-24T12:58:31.776Z,101686.44
2023-05-24T13:01:00.268Z,101683.66
2023-05-24T13:03:29.316Z,101683.43
2023-05-24T13:05:57.892Z,101681.40
2023-05-24T13:08:26.052Z,101677.25
2023-05-24T13:10:55.332Z,101674.93
2023-05-24T13:13:23.569Z,101678.52
2023-05-24T13:15:52.163Z,101678.07
2023-05-24T13:18:20.308Z,101679.87
2023-05-24T13:20:48.520Z,101679.24
2023-05-24T13:23:16.685Z,101678.20
2023-05-24T13:25:45.405Z,101678.69
2023-05-24T13:28:13.592Z,101671.73
2023-05-24T13:30:41.950Z,101673.36
2023-05-24T13:33:10.260Z,101667.84
2023-05-24T13:35:38.603Z,101659.10
2023-05-24T13:38:07.134Z,101662.27
2023-05-24T13:40:35.405Z,101665.77
2023-05-24T13:43:03.806Z,101665.61
2023-05-24T13:45:31.950Z,101666.59
2023-05-24T13:48:06.759Z,101671.33
2023-05-24T13:50:35.665Z,101669.53
2023-05-24T13:53:05.013Z,101669.44
2023-05-24T13:55:37.466Z,101669.34
2023-05-24T13:58:06.649Z,101670.28
2023-05-24T14:00:35.662Z,101664.07
2023-05-24T14:03:04.608Z,101659.13
2023-05-24T14:05:33.082Z,101662.11
2023-05-24T14:08:07.635Z,101663.91
2023-05-24T14:10:38.631Z,101662.70
2023-05-24T14:15:38.266Z,101671.13
2023-05-24T14:18:09.201Z,101670.91
2023-05-24T14:20:41.571Z,101669.99
2023-05-24T14:23:10.199Z,101658.94
2023-05-24T14:25:38.393Z,101658.05
2023-05-24T14:28:06.447Z,101656.88
2023-05-24T14:30:34.753Z,101659.85
2023-05-24T14:33:03.844Z,101652.89
2023-05-24T14:35:32.060Z,101656.59
2023-05-24T14:38:00.237Z,101652.53
2023-05-24T14:40:28.470Z,101656.16
2023-05-24T14:42:57.122Z,101645.70
2023-05-24T14:45:25.785Z,101651.13
2023-05-24T14:47:54.181Z,101648.34
2023-05-24T14:50:22.827Z,101652.43
2023-05-24T14:52:52.511Z,101648.84
2023-05-24T14:55:21.846Z,101651.32
2023-05-24T14:57:50.550Z,101644.23
2023-05-24T15:00:22.629Z,101643.41
2023-05-24T15:02:51.965Z,101649.06
2023-05-24T15:05:20.622Z,101649.72
2023-05-24T15:07:48.804Z,101647.07
2023-05-24T15:10:16.970Z,101653.58
2023-05-24T15:12:45.764Z,101651.91
2023-05-24T15:15:14.034Z,101652.27
2023-05-24T15:17:42.204Z,101650.21
2023-05-24T15:20:10.668Z,101646.87
2023-05-24T15:22:39.058Z,101651.68
2023-05-24T15:25:07.835Z,101648.34
2023-05-24T15:27:35.998Z,101647.40
2023-05-24T15:30:04.222Z,101646.81
2023-05-24T15:32:32.257Z,101654.85
2023-05-24T15:35:01.792Z,101648.12
2023-05-24T15:37:29.880Z,101646.81
2023-05-24T15:39:58.068Z,101654.49
2023-05-24T15:42:26.615Z,101647.43
2023-05-24T15:44:54.928Z,101658.84
2023-05-24T15:47:23.479Z,101651.78
2023-05-24T15:49:51.624Z,101653.71
2023-05-24T15:52:19.699Z,101646.74
2023-05-24T15:54:47.733Z,101652.40
2023-05-24T15:57:15.783Z,101646.41
2023-05-24T15:59:43.836Z,101643.41
2023-05-24T16:02:12.639Z,101643.28
2023-05-24T16:04:40.891Z,101652.17
2023-05-24T16:07:09.003Z,101665.61
2023-05-24T16:09:37.169Z,101658.55
2023-05-24T16:12:07.249Z,101653.52
2023-05-24T16:14:35.500Z,101661.16
2023-05-24T16:17:06.639Z,101658.19
2023-05-24T16:19:34.919Z,101653.52
2023-05-24T16:22:03.772Z,101664.04
2023-05-24T16:24:31.839Z,101662.73
2023-05-24T16:26:59.933Z,101658.19
2023-05-24T16:29:28.110Z,101661.88
2023-05-24T16:31:56.223Z,101659.40
2023-05-24T16:34:27.111Z,101656.52
2023-05-24T16:36:55.267Z,101657.24
2023-05-24T16:39:23.709Z,101655.54
2023-05-24T16:41:53.266Z,101656.62
2023-05-24T16:44:21.392Z,101661.88
2023-05-24T16:46:49.610Z,101655.31
2023-05-24T16:49:18.854Z,101660.21
2023-05-24T16:51:47.040Z,101658.19
2023-05-24T16:54:15.094Z,101664.66
2023-05-24T16:56:43.791Z,101676.76
2023-05-24T16:59:11.960Z,101668.13
2023-05-24T17:01:40.282Z,101673.75
2023-05-24T17:04:08.765Z,101670.38
2023-05-24T17:06:37.835Z,101661.26
2023-05-24T17:09:06.081Z,101667.73
2023-05-24T17:11:34.132Z,101674.34
2023-05-24T17:14:02.419Z,101664.70
2023-05-24T17:16:31.199Z,101678.79
2023-05-24T17:18:59.571Z,101670.45
2023-05-24T17:21:31.233Z,101679.34
2023-05-24T17:23:59.398Z,101677.64
2023-05-24T17:26:28.572Z,101681.34
2023-05-24T17:28:56.731Z,101685.09
2023-05-24T17:31:24.988Z,101682.22
2023-05-24T17:33:53.190Z,101685.42
2023-05-24T17:36:21.290Z,101689.51
2023-05-24T17:38:49.525Z,101692.39
2023-05-24T17:41:17.694Z,101696.80
2023-05-24T17:43:45.973Z,101693.92
2023-05-24T17:46:14.951Z,101695.85
2023-05-24T17:48:44.365Z,101691.37
2023-05-24T17:51:12.664Z,101698.34
2023-05-24T17:53:44.420Z,101701.94
2023-05-24T17:56:12.764Z,101709.36
2023-05-24T17:58:41.040Z,101704.45
2023-05-24T18:01:12.927Z,101705.30
2023-05-24T18:03:42.227Z,101710.21
2023-05-24T18:06:10.690Z,101698.57
2023-05-24T18:08:40.064Z,101708.51
2023-05-24T18:11:11.541Z,101709.72
2023-05-24T18:13:40.638Z,101722.41
2023-05-24T18:16:10.035Z,101727.30
2023-05-24T18:18:39.080Z,101720.70
2023-05-24T18:21:07.570Z,101726.46
2023-05-24T18:23:38.744Z,101722.77
2023-05-24T18:26:11.375Z,101727.66
2023-05-24T18:28:39.933Z,101734.24
2023-05-24T18:31:15.077Z,101729.56
2023-05-24T18:33:43.614Z,101730.05
2023-05-24T18:36:12.458Z,101728.87
2023-05-24T18:38:44.093Z,101732.08
2023-05-24T18:41:13.408Z,101729.20
2023-05-24T18:43:41.630Z,101728.87
2023-05-24T18:46:14.898Z,101730.55
2023-05-24T18:48:43.621Z,101725.51
2023-05-24T18:51:11.848Z,101724.53
2023-05-24T18:53:40.171Z,101726.55
2023-05-24T18:56:08.593Z,101729.30
2023-05-24T18:58:36.838Z,101734.89
2023-05-24T19:01:05.260Z,101733.09
2023-05-24T19:03:33.547Z,101734.99
2023-05-24T19:06:01.612Z,101732.80
2023-05-24T19:08:29.804Z,101737.48
2023-05-24T19:10:58.092Z,101737.67
2023-05-24T19:13:27.232Z,101733.68
2023-05-24T19:15:55.522Z,101733.52
2023-05-24T19:18:24.360Z,101728.35
2023-05-24T19:20:52.839Z,101724.85
2023-05-24T19:23:20.971Z,101725.21
2023-05-24T19:25:51.646Z,101719.88
2023-05-24T19:28:19.781Z,101718.88
2023-05-24T19:30:47.948Z,101723.97
2023-05-24T19:33:16.076Z,101726.72
2023-05-24T19:35:44.512Z,101720.15
2023-05-24T19:38:13.494Z,101720.51
2023-05-24T19:40:41.613Z,101724.53
2023-05-24T19:43:09.759Z,101724.27
2023-05-24T19:45:38.234Z,101726.85
2023-05-24T19:48:06.744Z,101722.14
2023-05-24T19:50:34.917Z,101726.20
2023-05-24T19:53:03.022Z,101722.83
2023-05-24T19:55:31.120Z,101727.41
2023-05-24T19:57:59.360Z,101720.34
2023-05-24T20:00:27.473Z,101725.21
2023-05-24T20:02:55.746Z,101722.70
2023-05-24T20:05:23.840Z,101724.73
2023-05-24T20:07:52.433Z,101723.58
2023-05-24T20:10:20.606Z,101728.81
2023-05-24T20:12:48.828Z,101730.35
2023-05-24T20:15:17.627Z,101734.89
2023-05-24T20:17:48.652Z,101737.90
2023-05-24T20:20:19.285Z,101741.79
2023-05-24T20:22:47.473Z,101741.43
2023-05-24T20:25:15.482Z,101738.55
2023-05-24T20:27:43.733Z,101738.91
2023-05-24T20:30:12.557Z,101739.77
2023-05-24T20:32:40.818Z,101744.67
2023-05-24T20:35:09.883Z,101742.94
2023-05-24T20:37:38.343Z,101742.61
2023-05-24T20:40:07.078Z,101742.94
2023-05-24T20:42:35.534Z,101753.59
2023-05-24T20:45:04.797Z,101743.46
2023-05-24T20:47:32.988Z,101749.51
2023-05-24T20:50:01.350Z,101741.79
2023-05-24T20:52:29.510Z,101745.98
2023-05-24T20:54:58.032Z,101742.61
2023-05-24T20:57:26.102Z,101733.52
2023-05-24T20:59:54.296Z,101733.88
2023-05-24T21:02:22.496Z,101734.34
2023-05-24T21:04:50.605Z,101726.26
2023-05-24T21:07:18.838Z,101727.08
2023-05-24T21:09:47.116Z,101727.08
2023-05-24T21:12:15.334Z,101727.08
2023-05-24T21:14:43.439Z,101726.39
2023-05-24T21:17:12.153Z,101720.34
2023-05-24T21:19:41.029Z,101717.11
2023-05-24T21:22:09.138Z,101719.98
2023-05-24T21:24:37.422Z,101719.98
2023-05-24T21:27:05.788Z,101718.64
2023-05-24T21:29:33.907Z,101727.08
2023-05-24T21:32:02.366Z,101719.69
2023-05-24T21:34:31.367Z,101727.08
2023-05-24T21:36:59.519Z,101728.29
2023-05-24T21:39:27.625Z,101732.84
2023-05-24T21:41:55.686Z,101729.43
2023-05-24T21:44:23.884Z,101736.04
2023-05-24T21:46:52.302Z,101731.49
2023-05-24T21:49:21.476Z,101728.62
2023-05-24T21:51:49.590Z,101728.29
2023-05-24T21:54:17.697Z,101740.58
2023-05-24T21:56:45.872Z,101734.01
2023-05-24T21:59:14.068Z,101736.20
2023-05-24T22:01:42.284Z,101733.65
2023-05-24T22:04:11.062Z,101732.51
2023-05-24T22:06:42.745Z,101734.17
2023-05-24T22:09:11.064Z,101734.66
2023-05-24T22:14:24.357Z,101728.95
2023-05-24T22:16:52.578Z,101739.73
2023-05-24T22:19:32.070Z,101727.05
2023-05-24T22:22:07.515Z,101723.35
2023-05-24T22:24:35.518Z,101723.35
2023-05-24T22:27:03.949Z,101732.93
2023-05-24T22:29:32.073Z,101728.02
2023-05-24T22:32:00.410Z,101725.67
2023-05-24T22:34:31.645Z,101722.66
2023-05-24T22:36:59.862Z,101728.71
2023-05-24T22:39:28.256Z,101732.44
2023-05-24T22:41:56.339Z,101724.33
2023-05-24T22:44:24.379Z,101719.92
2023-05-24T22:46:54.861Z,101716.91
2023-05-24T22:49:23.256Z,101723.48
2023-05-24T22:51:52.025Z,101724.01
2023-05-24T22:54:20.162Z,101720.60
2023-05-24T22:56:48.326Z,101719.79
2023-05-24T22:59:16.501Z,101720.60
2023-05-24T23:01:46.156Z,101718.25
2023-05-24T23:04:20.997Z,101714.55
2023-05-24T23:06:53.736Z,101712.53
2023-05-24T23:09:30.296Z,101711.19
2023-05-24T23:11:59.661Z,101712.37
2023-05-24T23:14:27.836Z,101722.14
2023-05-24T23:16:55.948Z,101711.87
2023-05-24T23:19:24.052Z,101720.48
2023-05-24T23:21:53.763Z,101721.68
2023-05-24T23:24:22.032Z,101719.98
2023-05-24T23:26:50.168Z,101718.80
2023-05-24T23:29:18.278Z,101716.59
2023-05-24T23:31:46.616Z,101714.10
2023-05-24T23:34:14.818Z,101713.58
2023-05-24T23:36:42.934Z,101710.37
2023-05-24T23:39:13.912Z,101717.47
2023-05-24T23:41:42.086Z,101722.83
2023-05-24T23:44:10.156Z,101719.98
2023-05-24T23:46:38.331Z,101714.23
2023-05-24T23:49:06.426Z,101713.41
2023-05-24T23:51:34.794Z,101709.20
2023-05-24T23:54:02.913Z,101707.52
2023-05-24T23:56:31.030Z,101709.20
2023-05-24T23:58:59.145Z,101709.20
